sensor_id;sensor_type;location;lat;lon;timestamp;P1;durP1;ratioP1;P2;durP2;ratioP2
71513;SDS011;59335;46.652;21.272;2024-03-23T00:52:10;11.52;;;6.85;;
71513;SDS011;59335;46.652;21.272;2024-03-23T00:55:12;10.60;;;6.60;;
71513;SDS011;59335;46.652;21.272;2024-03-23T00:58:14;10.70;;;7.33;;
71513;SDS011;59335;46.652;21.272;2024-03-23T01:01:16;9.75;;;6.82;;
71513;SDS011;59335;46.652;21.272;2024-03-23T01:04:17;10.23;;;6.68;;
71513;SDS011;59335;46.652;21.272;2024-03-23T01:07:19;11.50;;;6.70;;
71513;SDS011;59335;46.652;21.272;2024-03-23T01:10:21;10.30;;;6.80;;
71513;SDS011;59335;46.652;21.272;2024-03-23T01:13:23;11.07;;;7.00;;
71513;SDS011;59335;46.652;21.272;2024-03-23T01:16:25;10.55;;;6.60;;
71513;SDS011;59335;46.652;21.272;2024-03-23T01:19:27;9.93;;;6.38;;
71513;SDS011;59335;46.652;21.272;2024-03-23T01:22:28;9.80;;;6.13;;
71513;SDS011;59335;46.652;21.272;2024-03-23T01:25:30;10.60;;;6.50;;
71513;SDS011;59335;46.652;21.272;2024-03-23T01:28:32;11.67;;;6.53;;
71513;SDS011;59335;46.652;21.272;2024-03-23T01:31:34;9.73;;;6.50;;
71513;SDS011;59335;46.652;21.272;2024-03-23T01:34:36;11.27;;;6.78;;
71513;SDS011;59335;46.652;21.272;2024-03-23T01:37:38;11.05;;;6.45;;
71513;SDS011;59335;46.652;21.272;2024-03-23T01:40:39;9.65;;;6.45;;
71513;SDS011;59335;46.652;21.272;2024-03-23T01:43:41;9.90;;;6.30;;
71513;SDS011;59335;46.652;21.272;2024-03-23T01:46:43;10.93;;;6.32;;
71513;SDS011;59335;46.652;21.272;2024-03-23T01:49:45;10.70;;;6.65;;
71513;SDS011;59335;46.652;21.272;2024-03-23T01:52:48;11.05;;;7.13;;
71513;SDS011;59335;46.652;21.272;2024-03-23T01:55:50;9.63;;;6.10;;
71513;SDS011;59335;46.652;21.272;2024-03-23T01:58:52;10.30;;;6.50;;
71513;SDS011;59335;46.652;21.272;2024-03-23T02:01:54;10.10;;;7.07;;
71513;SDS011;59335;46.652;21.272;2024-03-23T02:04:57;11.13;;;6.55;;
71513;SDS011;59335;46.652;21.272;2024-03-23T02:07:59;10.00;;;6.55;;
71513;SDS011;59335;46.652;21.272;2024-03-23T02:11:01;10.38;;;6.45;;
71513;SDS011;59335;46.652;21.272;2024-03-23T02:14:02;11.63;;;6.70;;
71513;SDS011;59335;46.652;21.272;2024-03-23T02:17:04;11.13;;;6.78;;
71513;SDS011;59335;46.652;21.272;2024-03-23T02:20:06;10.38;;;6.53;;
71513;SDS011;59335;46.652;21.272;2024-03-23T02:23:15;10.02;;;6.38;;
71513;SDS011;59335;46.652;21.272;2024-03-23T02:26:18;9.82;;;6.20;;
71513;SDS011;59335;46.652;21.272;2024-03-23T02:29:19;11.20;;;7.03;;
71513;SDS011;59335;46.652;21.272;2024-03-23T02:32:22;9.40;;;6.15;;
71513;SDS011;59335;46.652;21.272;2024-03-23T02:35:24;11.02;;;6.45;;
71513;SDS011;59335;46.652;21.272;2024-03-23T02:38:25;10.23;;;7.00;;
71513;SDS011;59335;46.652;21.272;2024-03-23T02:41:27;11.00;;;6.80;;
71513;SDS011;59335;46.652;21.272;2024-03-23T02:44:29;10.00;;;6.20;;
71513;SDS011;59335;46.652;21.272;2024-03-23T02:47:31;9.05;;;6.10;;
71513;SDS011;59335;46.652;21.272;2024-03-23T02:50:32;9.70;;;6.70;;
71513;SDS011;59335;46.652;21.272;2024-03-23T02:53:35;11.23;;;6.57;;
71513;SDS011;59335;46.652;21.272;2024-03-23T02:56:37;10.70;;;6.70;;
71513;SDS011;59335;46.652;21.272;2024-03-23T02:59:39;10.27;;;6.43;;
71513;SDS011;59335;46.652;21.272;2024-03-23T03:02:41;9.35;;;6.32;;
71513;SDS011;59335;46.652;21.272;2024-03-23T03:05:43;10.32;;;6.95;;
71513;SDS011;59335;46.652;21.272;2024-03-23T03:08:44;10.23;;;5.85;;
71513;SDS011;59335;46.652;21.272;2024-03-23T03:11:46;9.88;;;6.40;;
71513;SDS011;59335;46.652;21.272;2024-03-23T03:14:48;10.47;;;6.13;;
71513;SDS011;59335;46.652;21.272;2024-03-23T03:17:49;10.60;;;6.15;;
71513;SDS011;59335;46.652;21.272;2024-03-23T03:20:54;9.68;;;6.25;;
71513;SDS011;59335;46.652;21.272;2024-03-23T03:23:56;9.65;;;5.78;;
71513;SDS011;59335;46.652;21.272;2024-03-23T03:26:58;10.57;;;6.30;;
71513;SDS011;59335;46.652;21.272;2024-03-23T03:30:00;9.93;;;6.20;;
71513;SDS011;59335;46.652;21.272;2024-03-23T03:33:10;9.68;;;6.15;;
71513;SDS011;59335;46.652;21.272;2024-03-23T03:36:13;9.75;;;6.18;;
71513;SDS011;59335;46.652;21.272;2024-03-23T03:39:14;10.07;;;6.13;;
71513;SDS011;59335;46.652;21.272;2024-03-23T03:42:16;10.10;;;6.55;;
71513;SDS011;59335;46.652;21.272;2024-03-23T03:45:18;10.10;;;6.17;;
71513;SDS011;59335;46.652;21.272;2024-03-23T03:48:20;9.57;;;6.07;;
71513;SDS011;59335;46.652;21.272;2024-03-23T03:51:22;8.98;;;5.85;;
71513;SDS011;59335;46.652;21.272;2024-03-23T03:54:24;9.75;;;6.07;;
71513;SDS011;59335;46.652;21.272;2024-03-23T03:57:26;10.15;;;6.60;;
71513;SDS011;59335;46.652;21.272;2024-03-23T04:00:27;10.07;;;6.63;;
71513;SDS011;59335;46.652;21.272;2024-03-23T04:03:30;10.23;;;6.13;;
71513;SDS011;59335;46.652;21.272;2024-03-23T04:06:32;8.82;;;5.90;;
71513;SDS011;59335;46.652;21.272;2024-03-23T04:09:34;9.48;;;6.05;;
71513;SDS011;59335;46.652;21.272;2024-03-23T04:12:36;10.68;;;6.43;;
71513;SDS011;59335;46.652;21.272;2024-03-23T04:15:38;9.47;;;6.40;;
71513;SDS011;59335;46.652;21.272;2024-03-23T04:18:40;9.57;;;6.30;;
71513;SDS011;59335;46.652;21.272;2024-03-23T04:21:42;9.23;;;6.05;;
71513;SDS011;59335;46.652;21.272;2024-03-23T04:24:44;9.68;;;6.40;;
71513;SDS011;59335;46.652;21.272;2024-03-23T04:27:46;10.07;;;6.30;;
71513;SDS011;59335;46.652;21.272;2024-03-23T04:30:48;10.80;;;6.20;;
71513;SDS011;59335;46.652;21.272;2024-03-23T04:33:50;10.07;;;6.70;;
71513;SDS011;59335;46.652;21.272;2024-03-23T04:36:52;10.57;;;6.57;;
71513;SDS011;59335;46.652;21.272;2024-03-23T04:39:54;10.00;;;6.53;;
71513;SDS011;59335;46.652;21.272;2024-03-23T04:42:55;9.63;;;6.22;;
71513;SDS011;59335;46.652;21.272;2024-03-23T04:45:57;10.00;;;6.87;;
71513;SDS011;59335;46.652;21.272;2024-03-23T04:48:59;10.38;;;6.45;;
71513;SDS011;59335;46.652;21.272;2024-03-23T04:52:01;9.82;;;6.03;;
71513;SDS011;59335;46.652;21.272;2024-03-23T04:55:05;10.60;;;6.18;;
71513;SDS011;59335;46.652;21.272;2024-03-23T04:58:07;10.10;;;5.90;;
71513;SDS011;59335;46.652;21.272;2024-03-23T05:01:10;9.87;;;6.57;;
71513;SDS011;59335;46.652;21.272;2024-03-23T05:04:12;10.45;;;6.40;;
71513;SDS011;59335;46.652;21.272;2024-03-23T05:07:14;10.52;;;6.53;;
71513;SDS011;59335;46.652;21.272;2024-03-23T05:10:16;9.77;;;6.60;;
71513;SDS011;59335;46.652;21.272;2024-03-23T05:13:18;10.75;;;6.30;;
71513;SDS011;59335;46.652;21.272;2024-03-23T05:16:20;9.33;;;6.20;;
71513;SDS011;59335;46.652;21.272;2024-03-23T05:19:21;10.00;;;6.65;;
71513;SDS011;59335;46.652;21.272;2024-03-23T05:22:24;8.73;;;5.90;;
71513;SDS011;59335;46.652;21.272;2024-03-23T05:25:26;9.38;;;6.40;;
71513;SDS011;59335;46.652;21.272;2024-03-23T05:28:27;9.85;;;6.10;;
71513;SDS011;59335;46.652;21.272;2024-03-23T05:31:30;9.93;;;5.93;;
71513;SDS011;59335;46.652;21.272;2024-03-23T05:34:32;10.68;;;6.10;;
71513;SDS011;59335;46.652;21.272;2024-03-23T05:37:35;9.10;;;5.45;;
71513;SDS011;59335;46.652;21.272;2024-03-23T05:40:36;8.57;;;5.95;;
71513;SDS011;59335;46.652;21.272;2024-03-23T05:43:41;9.23;;;6.20;;
71513;SDS011;59335;46.652;21.272;2024-03-23T05:46:43;9.90;;;6.07;;
71513;SDS011;59335;46.652;21.272;2024-03-23T05:49:49;10.35;;;6.45;;
71513;SDS011;59335;46.652;21.272;2024-03-23T05:52:52;12.90;;;6.45;;
71513;SDS011;59335;46.652;21.272;2024-03-23T05:56:00;13.35;;;6.55;;
71513;SDS011;59335;46.652;21.272;2024-03-23T05:59:06;12.20;;;6.90;;
71513;SDS011;59335;46.652;21.272;2024-03-23T06:02:08;10.70;;;6.50;;
71513;SDS011;59335;46.652;21.272;2024-03-23T06:05:12;10.90;;;6.22;;
71513;SDS011;59335;46.652;21.272;2024-03-23T06:08:14;10.02;;;5.82;;
71513;SDS011;59335;46.652;21.272;2024-03-23T06:11:16;11.77;;;6.50;;
71513;SDS011;59335;46.652;21.272;2024-03-23T06:14:18;10.45;;;6.40;;
71513;SDS011;59335;46.652;21.272;2024-03-23T06:17:20;10.77;;;6.83;;
71513;SDS011;59335;46.652;21.272;2024-03-23T06:20:21;11.40;;;6.82;;
71513;SDS011;59335;46.652;21.272;2024-03-23T06:23:23;10.48;;;6.35;;
71513;SDS011;59335;46.652;21.272;2024-03-23T06:26:24;10.40;;;6.30;;
71513;SDS011;59335;46.652;21.272;2024-03-23T06:29:26;9.88;;;6.30;;
71513;SDS011;59335;46.652;21.272;2024-03-23T06:32:28;9.87;;;6.60;;
71513;SDS011;59335;46.652;21.272;2024-03-23T06:35:32;10.50;;;6.45;;
71513;SDS011;59335;46.652;21.272;2024-03-23T06:38:34;10.43;;;6.05;;
71513;SDS011;59335;46.652;21.272;2024-03-23T06:41:36;9.18;;;5.75;;
71513;SDS011;59335;46.652;21.272;2024-03-23T06:44:38;10.73;;;6.28;;
71513;SDS011;59335;46.652;21.272;2024-03-23T06:47:40;11.50;;;6.47;;
71513;SDS011;59335;46.652;21.272;2024-03-23T06:50:42;9.23;;;5.88;;
71513;SDS011;59335;46.652;21.272;2024-03-23T06:53:44;10.68;;;6.15;;
71513;SDS011;59335;46.652;21.272;2024-03-23T06:56:46;9.00;;;6.32;;
71513;SDS011;59335;46.652;21.272;2024-03-23T06:59:47;10.32;;;6.05;;
71513;SDS011;59335;46.652;21.272;2024-03-23T07:02:49;11.23;;;6.10;;
71513;SDS011;59335;46.652;21.272;2024-03-23T07:05:51;9.15;;;5.85;;
71513;SDS011;59335;46.652;21.272;2024-03-23T07:08:53;11.38;;;6.18;;
71513;SDS011;59335;46.652;21.272;2024-03-23T07:11:58;11.68;;;6.25;;
71513;SDS011;59335;46.652;21.272;2024-03-23T07:15:00;9.93;;;5.97;;
71513;SDS011;59335;46.652;21.272;2024-03-23T07:18:02;10.40;;;6.17;;
71513;SDS011;59335;46.652;21.272;2024-03-23T07:21:04;11.15;;;6.20;;
71513;SDS011;59335;46.652;21.272;2024-03-23T07:24:08;9.75;;;6.30;;
71513;SDS011;59335;46.652;21.272;2024-03-23T07:27:10;10.65;;;6.47;;
71513;SDS011;59335;46.652;21.272;2024-03-23T07:30:12;9.52;;;6.10;;
71513;SDS011;59335;46.652;21.272;2024-03-23T07:33:15;10.53;;;6.73;;
71513;SDS011;59335;46.652;21.272;2024-03-23T07:36:16;9.63;;;6.43;;
71513;SDS011;59335;46.652;21.272;2024-03-23T07:39:18;9.13;;;6.20;;
71513;SDS011;59335;46.652;21.272;2024-03-23T07:42:20;10.77;;;6.47;;
71513;SDS011;59335;46.652;21.272;2024-03-23T07:45:21;10.82;;;6.45;;
71513;SDS011;59335;46.652;21.272;2024-03-23T07:48:23;9.23;;;6.20;;
71513;SDS011;59335;46.652;21.272;2024-03-23T07:51:25;10.77;;;6.47;;
71513;SDS011;59335;46.652;21.272;2024-03-23T07:54:27;9.80;;;6.18;;
71513;SDS011;59335;46.652;21.272;2024-03-23T07:57:29;10.25;;;6.28;;
71513;SDS011;59335;46.652;21.272;2024-03-23T08:00:31;9.55;;;5.85;;
71513;SDS011;59335;46.652;21.272;2024-03-23T08:03:32;10.20;;;6.07;;
71513;SDS011;59335;46.652;21.272;2024-03-23T08:06:34;9.48;;;6.55;;
71513;SDS011;59335;46.652;21.272;2024-03-23T08:09:36;8.88;;;6.30;;
71513;SDS011;59335;46.652;21.272;2024-03-23T08:12:38;11.57;;;6.47;;
71513;SDS011;59335;46.652;21.272;2024-03-23T08:15:40;8.40;;;5.80;;
71513;SDS011;59335;46.652;21.272;2024-03-23T08:18:43;9.50;;;6.30;;
71513;SDS011;59335;46.652;21.272;2024-03-23T08:21:44;8.52;;;5.97;;
71513;SDS011;59335;46.652;21.272;2024-03-23T08:24:46;9.98;;;6.18;;
71513;SDS011;59335;46.652;21.272;2024-03-23T08:27:48;10.27;;;6.30;;
71513;SDS011;59335;46.652;21.272;2024-03-23T08:30:50;10.38;;;6.13;;
71513;SDS011;59335;46.652;21.272;2024-03-23T08:33:52;10.40;;;6.40;;
71513;SDS011;59335;46.652;21.272;2024-03-23T08:36:53;9.40;;;6.20;;
71513;SDS011;59335;46.652;21.272;2024-03-23T08:39:55;11.02;;;5.88;;
71513;SDS011;59335;46.652;21.272;2024-03-23T08:42:57;10.93;;;6.18;;
71513;SDS011;59335;46.652;21.272;2024-03-23T08:49:08;10.60;;;6.37;;
71513;SDS011;59335;46.652;21.272;2024-03-23T08:52:10;9.73;;;6.40;;
71513;SDS011;59335;46.652;21.272;2024-03-23T08:55:11;8.73;;;6.40;;
71513;SDS011;59335;46.652;21.272;2024-03-23T08:58:13;9.45;;;6.15;;
71513;SDS011;59335;46.652;21.272;2024-03-23T09:01:19;8.77;;;5.78;;
71513;SDS011;59335;46.652;21.272;2024-03-23T09:04:20;9.13;;;5.90;;
71513;SDS011;59335;46.652;21.272;2024-03-23T09:07:22;9.35;;;5.90;;
71513;SDS011;59335;46.652;21.272;2024-03-23T09:10:24;8.70;;;5.55;;
71513;SDS011;59335;46.652;21.272;2024-03-23T09:13:26;8.82;;;5.50;;
71513;SDS011;59335;46.652;21.272;2024-03-23T09:16:28;9.35;;;5.70;;
71513;SDS011;59335;46.652;21.272;2024-03-23T09:19:31;9.17;;;5.80;;
71513;SDS011;59335;46.652;21.272;2024-03-23T09:22:33;9.43;;;6.10;;
71513;SDS011;59335;46.652;21.272;2024-03-23T09:25:38;8.73;;;5.40;;
71513;SDS011;59335;46.652;21.272;2024-03-23T09:28:40;9.68;;;6.05;;
71513;SDS011;59335;46.652;21.272;2024-03-23T09:31:42;8.98;;;5.88;;
71513;SDS011;59335;46.652;21.272;2024-03-23T09:34:44;9.90;;;6.40;;
71513;SDS011;59335;46.652;21.272;2024-03-23T09:37:46;8.93;;;5.90;;
71513;SDS011;59335;46.652;21.272;2024-03-23T09:40:48;10.60;;;6.50;;
71513;SDS011;59335;46.652;21.272;2024-03-23T09:43:54;9.57;;;5.70;;
71513;SDS011;59335;46.652;21.272;2024-03-23T09:46:56;9.50;;;5.82;;
71513;SDS011;59335;46.652;21.272;2024-03-23T09:49:59;8.47;;;5.37;;
71513;SDS011;59335;46.652;21.272;2024-03-23T09:53:01;8.48;;;5.40;;
71513;SDS011;59335;46.652;21.272;2024-03-23T09:56:04;10.45;;;5.82;;
71513;SDS011;59335;46.652;21.272;2024-03-23T09:59:06;8.50;;;5.75;;
71513;SDS011;59335;46.652;21.272;2024-03-23T10:02:07;9.05;;;5.57;;
71513;SDS011;59335;46.652;21.272;2024-03-23T10:05:19;8.87;;;5.80;;
71513;SDS011;59335;46.652;21.272;2024-03-23T10:08:24;8.82;;;5.80;;
71513;SDS011;59335;46.652;21.272;2024-03-23T10:11:27;10.23;;;5.78;;
71513;SDS011;59335;46.652;21.272;2024-03-23T10:14:31;8.63;;;5.32;;
71513;SDS011;59335;46.652;21.272;2024-03-23T10:17:32;7.85;;;5.60;;
71513;SDS011;59335;46.652;21.272;2024-03-23T10:20:34;9.70;;;5.87;;
71513;SDS011;59335;46.652;21.272;2024-03-23T10:23:37;9.90;;;5.35;;
71513;SDS011;59335;46.652;21.272;2024-03-23T10:26:40;8.25;;;5.43;;
71513;SDS011;59335;46.652;21.272;2024-03-23T10:29:42;8.63;;;5.53;;
71513;SDS011;59335;46.652;21.272;2024-03-23T10:32:44;8.63;;;5.75;;
71513;SDS011;59335;46.652;21.272;2024-03-23T10:35:47;8.23;;;5.50;;
71513;SDS011;59335;46.652;21.272;2024-03-23T10:38:50;7.78;;;5.20;;
71513;SDS011;59335;46.652;21.272;2024-03-23T10:41:53;9.00;;;5.82;;
71513;SDS011;59335;46.652;21.272;2024-03-23T10:44:58;8.30;;;5.50;;
71513;SDS011;59335;46.652;21.272;2024-03-23T10:48:01;8.63;;;5.65;;
71513;SDS011;59335;46.652;21.272;2024-03-23T10:51:04;7.77;;;5.20;;
71513;SDS011;59335;46.652;21.272;2024-03-23T10:54:08;8.15;;;5.28;;
71513;SDS011;59335;46.652;21.272;2024-03-23T10:57:15;8.68;;;5.50;;
71513;SDS011;59335;46.652;21.272;2024-03-23T11:00:23;9.57;;;5.45;;
71513;SDS011;59335;46.652;21.272;2024-03-23T11:03:35;7.93;;;5.18;;
71513;SDS011;59335;46.652;21.272;2024-03-23T11:06:38;9.47;;;5.23;;
71513;SDS011;59335;46.652;21.272;2024-03-23T11:09:41;7.72;;;5.43;;
71513;SDS011;59335;46.652;21.272;2024-03-23T11:12:46;8.43;;;5.50;;
71513;SDS011;59335;46.652;21.272;2024-03-23T11:15:48;7.95;;;5.28;;
71513;SDS011;59335;46.652;21.272;2024-03-23T11:18:49;9.68;;;5.63;;
71513;SDS011;59335;46.652;21.272;2024-03-23T11:21:53;8.90;;;5.33;;
71513;SDS011;59335;46.652;21.272;2024-03-23T11:24:55;8.10;;;5.22;;
71513;SDS011;59335;46.652;21.272;2024-03-23T11:27:58;8.85;;;5.68;;
71513;SDS011;59335;46.652;21.272;2024-03-23T11:31:12;9.82;;;5.70;;
71513;SDS011;59335;46.652;21.272;2024-03-23T11:34:16;9.07;;;5.47;;
71513;SDS011;59335;46.652;21.272;2024-03-23T11:37:19;9.17;;;5.50;;
71513;SDS011;59335;46.652;21.272;2024-03-23T11:40:20;9.43;;;5.40;;
71513;SDS011;59335;46.652;21.272;2024-03-23T11:43:23;8.02;;;5.30;;
71513;SDS011;59335;46.652;21.272;2024-03-23T11:46:26;7.68;;;5.20;;
71513;SDS011;59335;46.652;21.272;2024-03-23T11:49:29;8.85;;;5.68;;
71513;SDS011;59335;46.652;21.272;2024-03-23T11:52:31;8.17;;;5.00;;
71513;SDS011;59335;46.652;21.272;2024-03-23T11:55:43;7.75;;;5.32;;
71513;SDS011;59335;46.652;21.272;2024-03-23T11:58:46;7.82;;;5.10;;
71513;SDS011;59335;46.652;21.272;2024-03-23T12:01:50;7.57;;;5.00;;
71513;SDS011;59335;46.652;21.272;2024-03-23T12:04:51;8.45;;;5.45;;
71513;SDS011;59335;46.652;21.272;2024-03-23T12:07:54;7.80;;;5.07;;
71513;SDS011;59335;46.652;21.272;2024-03-23T12:14:07;8.10;;;5.35;;
71513;SDS011;59335;46.652;21.272;2024-03-23T12:20:15;7.90;;;5.07;;
71513;SDS011;59335;46.652;21.272;2024-03-23T12:23:17;7.63;;;5.00;;
71513;SDS011;59335;46.652;21.272;2024-03-23T12:26:19;8.48;;;4.90;;
71513;SDS011;59335;46.652;21.272;2024-03-23T12:29:21;7.95;;;5.28;;
71513;SDS011;59335;46.652;21.272;2024-03-23T12:32:24;7.93;;;5.35;;
71513;SDS011;59335;46.652;21.272;2024-03-23T12:35:25;8.88;;;5.97;;
71513;SDS011;59335;46.652;21.272;2024-03-23T12:38:27;8.37;;;5.10;;
71513;SDS011;59335;46.652;21.272;2024-03-23T12:41:29;8.27;;;4.63;;
71513;SDS011;59335;46.652;21.272;2024-03-23T12:44:30;8.43;;;5.20;;
71513;SDS011;59335;46.652;21.272;2024-03-23T12:47:33;7.60;;;5.18;;
71513;SDS011;59335;46.652;21.272;2024-03-23T12:50:34;8.20;;;4.95;;
71513;SDS011;59335;46.652;21.272;2024-03-23T12:53:36;8.40;;;4.97;;
71513;SDS011;59335;46.652;21.272;2024-03-23T12:56:38;8.13;;;5.00;;
71513;SDS011;59335;46.652;21.272;2024-03-23T12:59:40;7.63;;;5.45;;
71513;SDS011;59335;46.652;21.272;2024-03-23T13:02:42;8.18;;;5.60;;
71513;SDS011;59335;46.652;21.272;2024-03-23T13:05:51;7.78;;;4.88;;
71513;SDS011;59335;46.652;21.272;2024-03-23T13:08:53;8.00;;;5.23;;
71513;SDS011;59335;46.652;21.272;2024-03-23T13:11:56;7.53;;;4.70;;
71513;SDS011;59335;46.652;21.272;2024-03-23T13:14:57;7.90;;;5.53;;
71513;SDS011;59335;46.652;21.272;2024-03-23T13:18:00;8.43;;;5.30;;
71513;SDS011;59335;46.652;21.272;2024-03-23T13:21:02;8.60;;;5.30;;
71513;SDS011;59335;46.652;21.272;2024-03-23T13:24:06;8.03;;;4.90;;
71513;SDS011;59335;46.652;21.272;2024-03-23T13:27:07;7.60;;;4.95;;
71513;SDS011;59335;46.652;21.272;2024-03-23T13:30:09;8.48;;;4.97;;
71513;SDS011;59335;46.652;21.272;2024-03-23T13:33:11;7.00;;;4.90;;
71513;SDS011;59335;46.652;21.272;2024-03-23T13:36:13;8.15;;;5.10;;
71513;SDS011;59335;46.652;21.272;2024-03-23T13:39:15;8.77;;;5.03;;
71513;SDS011;59335;46.652;21.272;2024-03-23T13:42:17;8.85;;;5.10;;
71513;SDS011;59335;46.652;21.272;2024-03-23T13:45:21;7.53;;;4.70;;
71513;SDS011;59335;46.652;21.272;2024-03-23T13:48:24;7.80;;;5.10;;
71513;SDS011;59335;46.652;21.272;2024-03-23T13:51:26;8.73;;;5.13;;
71513;SDS011;59335;46.652;21.272;2024-03-23T13:54:28;8.13;;;5.20;;
71513;SDS011;59335;46.652;21.272;2024-03-23T13:57:30;7.20;;;4.85;;
71513;SDS011;59335;46.652;21.272;2024-03-23T14:00:32;7.32;;;4.90;;
71513;SDS011;59335;46.652;21.272;2024-03-23T14:03:34;7.57;;;4.85;;
71513;SDS011;59335;46.652;21.272;2024-03-23T14:06:36;7.30;;;4.68;;
71513;SDS011;59335;46.652;21.272;2024-03-23T14:09:38;7.47;;;5.07;;
71513;SDS011;59335;46.652;21.272;2024-03-23T14:12:39;7.35;;;4.85;;
71513;SDS011;59335;46.652;21.272;2024-03-23T14:15:43;8.93;;;5.07;;
71513;SDS011;59335;46.652;21.272;2024-03-23T14:18:48;8.52;;;5.05;;
71513;SDS011;59335;46.652;21.272;2024-03-23T14:21:49;6.93;;;4.88;;
71513;SDS011;59335;46.652;21.272;2024-03-23T14:24:51;8.20;;;4.93;;
71513;SDS011;59335;46.652;21.272;2024-03-23T14:27:53;7.53;;;4.78;;
71513;SDS011;59335;46.652;21.272;2024-03-23T14:30:55;7.50;;;5.13;;
71513;SDS011;59335;46.652;21.272;2024-03-23T14:33:57;7.55;;;4.82;;
71513;SDS011;59335;46.652;21.272;2024-03-23T14:36:59;7.90;;;5.22;;
71513;SDS011;59335;46.652;21.272;2024-03-23T14:40:01;8.90;;;5.43;;
71513;SDS011;59335;46.652;21.272;2024-03-23T14:43:04;7.60;;;5.15;;
71513;SDS011;59335;46.652;21.272;2024-03-23T14:49:14;7.85;;;4.90;;
71513;SDS011;59335;46.652;21.272;2024-03-23T14:52:19;7.82;;;4.93;;
71513;SDS011;59335;46.652;21.272;2024-03-23T14:55:21;8.20;;;5.47;;
71513;SDS011;59335;46.652;21.272;2024-03-23T14:58:23;7.47;;;4.93;;
71513;SDS011;59335;46.652;21.272;2024-03-23T15:01:26;7.30;;;4.90;;
71513;SDS011;59335;46.652;21.272;2024-03-23T15:04:28;7.53;;;4.80;;
71513;SDS011;59335;46.652;21.272;2024-03-23T15:07:33;8.23;;;5.30;;
71513;SDS011;59335;46.652;21.272;2024-03-23T15:10:35;8.80;;;4.77;;
71513;SDS011;59335;46.652;21.272;2024-03-23T15:13:36;7.80;;;4.93;;
71513;SDS011;59335;46.652;21.272;2024-03-23T15:16:39;8.00;;;5.03;;
71513;SDS011;59335;46.652;21.272;2024-03-23T15:19:41;7.80;;;4.47;;
71513;SDS011;59335;46.652;21.272;2024-03-23T15:22:43;7.13;;;4.50;;
71513;SDS011;59335;46.652;21.272;2024-03-23T15:25:45;6.80;;;4.77;;
71513;SDS011;59335;46.652;21.272;2024-03-23T15:28:47;7.88;;;4.97;;
71513;SDS011;59335;46.652;21.272;2024-03-23T15:31:59;7.63;;;4.60;;
71513;SDS011;59335;46.652;21.272;2024-03-23T15:35:01;7.38;;;4.70;;
71513;SDS011;59335;46.652;21.272;2024-03-23T15:38:03;7.70;;;4.90;;
71513;SDS011;59335;46.652;21.272;2024-03-23T15:41:05;7.73;;;4.93;;
71513;SDS011;59335;46.652;21.272;2024-03-23T15:44:06;7.13;;;4.90;;
71513;SDS011;59335;46.652;21.272;2024-03-23T15:47:08;7.85;;;4.70;;
71513;SDS011;59335;46.652;21.272;2024-03-23T15:50:10;6.95;;;4.28;;
71513;SDS011;59335;46.652;21.272;2024-03-23T15:53:12;7.40;;;4.97;;
71513;SDS011;59335;46.652;21.272;2024-03-23T15:56:13;7.40;;;5.00;;
71513;SDS011;59335;46.652;21.272;2024-03-23T15:59:15;7.15;;;4.70;;
71513;SDS011;59335;46.652;21.272;2024-03-23T16:02:17;7.93;;;4.57;;
71513;SDS011;59335;46.652;21.272;2024-03-23T16:05:18;7.57;;;4.90;;
71513;SDS011;59335;46.652;21.272;2024-03-23T16:08:20;6.72;;;4.72;;
71513;SDS011;59335;46.652;21.272;2024-03-23T16:11:22;7.63;;;4.90;;
71513;SDS011;59335;46.652;21.272;2024-03-23T16:14:24;8.43;;;4.63;;
71513;SDS011;59335;46.652;21.272;2024-03-23T16:17:26;7.32;;;4.55;;
71513;SDS011;59335;46.652;21.272;2024-03-23T16:20:28;7.38;;;5.00;;
71513;SDS011;59335;46.652;21.272;2024-03-23T16:23:31;8.73;;;4.78;;
71513;SDS011;59335;46.652;21.272;2024-03-23T16:26:33;7.83;;;4.70;;
71513;SDS011;59335;46.652;21.272;2024-03-23T16:29:35;7.55;;;4.50;;
71513;SDS011;59335;46.652;21.272;2024-03-23T16:32:37;6.82;;;4.45;;
71513;SDS011;59335;46.652;21.272;2024-03-23T16:35:39;6.70;;;4.47;;
71513;SDS011;59335;46.652;21.272;2024-03-23T16:38:41;6.80;;;4.70;;
71513;SDS011;59335;46.652;21.272;2024-03-23T16:41:43;7.70;;;5.13;;
71513;SDS011;59335;46.652;21.272;2024-03-23T16:44:45;7.10;;;4.55;;
71513;SDS011;59335;46.652;21.272;2024-03-23T16:47:47;7.68;;;4.65;;
71513;SDS011;59335;46.652;21.272;2024-03-23T16:50:49;6.80;;;4.53;;
71513;SDS011;59335;46.652;21.272;2024-03-23T16:53:51;6.75;;;4.45;;
71513;SDS011;59335;46.652;21.272;2024-03-23T16:56:54;7.40;;;4.70;;
71513;SDS011;59335;46.652;21.272;2024-03-23T16:59:55;7.03;;;4.50;;
71513;SDS011;59335;46.652;21.272;2024-03-23T17:02:57;7.55;;;4.43;;
71513;SDS011;59335;46.652;21.272;2024-03-23T17:06:02;7.22;;;4.55;;
71513;SDS011;59335;46.652;21.272;2024-03-23T17:09:05;6.53;;;4.20;;
71513;SDS011;59335;46.652;21.272;2024-03-23T17:12:07;7.20;;;4.57;;
71513;SDS011;59335;46.652;21.272;2024-03-23T17:15:09;7.18;;;4.88;;
71513;SDS011;59335;46.652;21.272;2024-03-23T17:18:12;7.13;;;4.68;;
71513;SDS011;59335;46.652;21.272;2024-03-23T17:21:14;6.80;;;4.28;;
71513;SDS011;59335;46.652;21.272;2024-03-23T17:24:16;7.32;;;4.55;;
71513;SDS011;59335;46.652;21.272;2024-03-23T17:27:18;7.17;;;4.30;;
71513;SDS011;59335;46.652;21.272;2024-03-23T17:30:20;6.45;;;4.20;;
71513;SDS011;59335;46.652;21.272;2024-03-23T17:33:22;7.90;;;4.70;;
71513;SDS011;59335;46.652;21.272;2024-03-23T17:36:25;7.50;;;4.93;;
71513;SDS011;59335;46.652;21.272;2024-03-23T17:39:31;7.10;;;4.50;;
71513;SDS011;59335;46.652;21.272;2024-03-23T17:42:34;7.57;;;4.80;;
71513;SDS011;59335;46.652;21.272;2024-03-23T17:45:36;8.70;;;4.70;;
71513;SDS011;59335;46.652;21.272;2024-03-23T17:48:38;7.15;;;4.53;;
71513;SDS011;59335;46.652;21.272;2024-03-23T17:51:40;7.80;;;4.72;;
71513;SDS011;59335;46.652;21.272;2024-03-23T17:54:42;7.35;;;4.47;;
71513;SDS011;59335;46.652;21.272;2024-03-23T17:57:43;7.20;;;4.50;;
71513;SDS011;59335;46.652;21.272;2024-03-23T18:00:45;7.05;;;4.70;;
71513;SDS011;59335;46.652;21.272;2024-03-23T18:03:50;6.80;;;4.28;;
71513;SDS011;59335;46.652;21.272;2024-03-23T18:06:55;7.18;;;4.53;;
71513;SDS011;59335;46.652;21.272;2024-03-23T18:09:56;7.85;;;4.70;;
71513;SDS011;59335;46.652;21.272;2024-03-23T18:12:58;9.13;;;4.60;;
71513;SDS011;59335;46.652;21.272;2024-03-23T18:16:00;7.55;;;4.78;;
71513;SDS011;59335;46.652;21.272;2024-03-23T18:19:01;6.82;;;4.32;;
71513;SDS011;59335;46.652;21.272;2024-03-23T18:22:03;7.57;;;4.50;;
71513;SDS011;59335;46.652;21.272;2024-03-23T18:25:05;7.18;;;4.43;;
71513;SDS011;59335;46.652;21.272;2024-03-23T18:28:07;7.50;;;4.40;;
71513;SDS011;59335;46.652;21.272;2024-03-23T18:31:08;7.03;;;4.30;;
71513;SDS011;59335;46.652;21.272;2024-03-23T18:34:10;6.95;;;4.10;;
71513;SDS011;59335;46.652;21.272;2024-03-23T18:37:12;7.53;;;4.63;;
71513;SDS011;59335;46.652;21.272;2024-03-23T18:40:14;7.05;;;4.18;;
71513;SDS011;59335;46.652;21.272;2024-03-23T18:43:16;7.13;;;4.67;;
71513;SDS011;59335;46.652;21.272;2024-03-23T18:46:18;6.88;;;4.57;;
71513;SDS011;59335;46.652;21.272;2024-03-23T18:49:24;7.22;;;4.53;;
71513;SDS011;59335;46.652;21.272;2024-03-23T18:52:26;7.07;;;4.72;;
71513;SDS011;59335;46.652;21.272;2024-03-23T18:55:28;8.10;;;4.72;;
71513;SDS011;59335;46.652;21.272;2024-03-23T18:58:30;8.00;;;4.70;;
71513;SDS011;59335;46.652;21.272;2024-03-23T19:01:32;6.50;;;4.22;;